createdAt,value
2022-10-05T00:00:31.439Z,13.20
2022-10-05T00:03:10.833Z,13.20
2022-10-05T00:05:41.041Z,13.20
2022-10-05T00:08:12.584Z,13.20
2022-10-05T00:10:41.519Z,13.20
2022-10-05T00:13:37.858Z,13.10
2022-10-05T00:16:12.120Z,13.10
2022-10-05T00:18:44.874Z,13.10
2022-10-05T00:21:28.902Z,13.10
2022-10-05T00:24:00.660Z,13.10
2022-10-05T00:26:33.151Z,13.00
2022-10-05T00:29:20.606Z,13.00
2022-10-05T00:31:47.916Z,13.00
2022-10-05T00:34:15.823Z,13.00
2022-10-05T00:36:43.762Z,13.00
2022-10-05T00:39:19.889Z,13.00
2022-10-05T00:42:34.792Z,12.90
2022-10-05T00:45:24.231Z,13.00
2022-10-05T00:48:38.689Z,12.90
2022-10-05T00:51:24.008Z,12.90
2022-10-05T00:54:42.393Z,12.90
2022-10-05T00:57:59.883Z,12.90
2022-10-05T01:00:27.837Z,12.90
2022-10-05T01:03:26.185Z,12.90
2022-10-05T01:06:28.112Z,12.90
2022-10-05T01:09:08.950Z,12.90
2022-10-05T01:11:45.220Z,12.90
2022-10-05T01:14:30.032Z,12.90
2022-10-05T01:17:20.411Z,12.90
2022-10-05T01:20:10.110Z,12.80
2022-10-05T01:23:02.120Z,12.80
2022-10-05T01:26:05.584Z,12.80
2022-10-05T01:28:45.629Z,12.90
2022-10-05T01:31:26.042Z,12.90
2022-10-05T01:34:11.595Z,12.80
2022-10-05T01:37:01.649Z,12.80
2022-10-05T01:40:08.380Z,12.80
2022-10-05T01:42:53.652Z,12.80
2022-10-05T01:45:36.548Z,12.80
2022-10-05T01:48:21.231Z,12.70
2022-10-05T01:51:09.719Z,12.70
2022-10-05T01:54:03.595Z,12.70
2022-10-05T01:57:07.005Z,12.70
2022-10-05T02:00:13.944Z,12.70
2022-10-05T02:02:51.946Z,12.70
2022-10-05T02:05:35.071Z,12.60
2022-10-05T02:08:17.757Z,12.60
2022-10-05T02:11:11.304Z,12.60
2022-10-05T02:13:55.797Z,12.60
2022-10-05T02:16:40.978Z,12.60
2022-10-05T02:19:40.645Z,12.60
2022-10-05T02:22:15.022Z,12.60
2022-10-05T02:25:00.209Z,12.60
2022-10-05T02:28:07.989Z,12.60
2022-10-05T02:30:45.340Z,12.60
2022-10-05T02:33:32.894Z,12.50
2022-10-05T02:36:42.645Z,12.50
2022-10-05T02:39:52.382Z,12.50
2022-10-05T02:43:09.071Z,12.50
2022-10-05T02:46:21.883Z,12.50
2022-10-05T02:49:22.251Z,12.40
2022-10-05T02:52:12.051Z,12.40
2022-10-05T02:55:53.405Z,12.40
2022-10-05T02:58:29.145Z,12.30
2022-10-05T03:01:16.969Z,12.30
2022-10-05T03:04:04.995Z,12.30
2022-10-05T03:07:02.946Z,12.30
2022-10-05T03:09:45.125Z,12.30
2022-10-05T03:12:47.483Z,12.20
2022-10-05T03:15:50.518Z,12.20
2022-10-05T03:18:59.207Z,12.20
2022-10-05T03:21:47.008Z,12.20
2022-10-05T03:24:37.522Z,12.20
2022-10-05T03:27:23.174Z,12.20
2022-10-05T03:30:18.294Z,12.30
2022-10-05T03:33:21.311Z,12.30
2022-10-05T03:36:11.501Z,12.40
2022-10-05T03:39:12.356Z,12.40
2022-10-05T03:42:14.404Z,12.40
2022-10-05T03:45:09.265Z,12.50
2022-10-05T03:48:18.495Z,12.50
2022-10-05T03:51:22.772Z,12.60
2022-10-05T03:53:57.378Z,12.70
2022-10-05T03:56:38.460Z,12.70
2022-10-05T03:59:53.017Z,12.70
2022-10-05T04:02:29.215Z,12.70
2022-10-05T04:05:09.099Z,12.80
2022-10-05T04:08:00.220Z,12.80
2022-10-05T04:10:42.126Z,12.80
2022-10-05T04:13:30.074Z,12.80
2022-10-05T04:16:27.819Z,12.80
2022-10-05T04:19:34.038Z,12.80
2022-10-05T04:22:14.293Z,12.80
2022-10-05T04:24:51.669Z,12.80
2022-10-05T04:27:31.671Z,12.80
2022-10-05T04:30:18.337Z,12.80
2022-10-05T04:32:59.557Z,12.90
2022-10-05T04:35:55.801Z,12.90
2022-10-05T04:38:48.692Z,12.90
2022-10-05T04:41:40.204Z,12.90
2022-10-05T04:44:28.541Z,12.90
2022-10-05T04:47:50.539Z,13.00
2022-10-05T04:50:36.767Z,13.00
2022-10-05T04:53:15.022Z,13.10
2022-10-05T04:56:24.292Z,13.10
2022-10-05T04:59:25.250Z,13.10
2022-10-05T05:02:20.799Z,13.20
2022-10-05T05:05:15.388Z,13.20
2022-10-05T05:08:11.859Z,13.20
2022-10-05T05:10:57.362Z,13.30
2022-10-05T05:13:48.331Z,13.30
2022-10-05T05:16:33.040Z,13.30
2022-10-05T05:19:17.089Z,13.40
2022-10-05T05:22:28.913Z,13.40
2022-10-05T05:25:30.381Z,13.40
2022-10-05T05:28:08.266Z,13.40
2022-10-05T05:31:13.089Z,13.50
2022-10-05T05:33:45.208Z,13.50
2022-10-05T05:36:31.468Z,13.50
2022-10-05T05:39:07.238Z,13.60
2022-10-05T05:42:08.758Z,13.60
2022-10-05T05:44:54.329Z,13.60
2022-10-05T05:47:28.341Z,13.70
2022-10-05T05:50:50.347Z,13.70
2022-10-05T05:53:39.259Z,13.70
2022-10-05T05:56:25.043Z,13.80
2022-10-05T05:59:28.459Z,13.80
2022-10-05T06:02:21.371Z,13.70
2022-10-05T06:05:02.969Z,13.80
2022-10-05T06:07:37.744Z,13.80
2022-10-05T06:10:17.903Z,13.80
2022-10-05T06:12:52.335Z,13.70
2022-10-05T06:16:05.900Z,13.80
2022-10-05T06:18:33.218Z,13.80
2022-10-05T06:21:13.899Z,13.80
2022-10-05T06:23:40.655Z,13.80
2022-10-05T06:27:04.378Z,13.80
2022-10-05T06:30:04.796Z,13.80
2022-10-05T06:32:50.720Z,13.80
2022-10-05T06:35:26.153Z,13.80
2022-10-05T06:38:15.039Z,13.90
2022-10-05T06:41:01.580Z,13.90
2022-10-05T06:43:43.589Z,13.90
2022-10-05T06:46:25.627Z,13.90
2022-10-05T06:49:09.072Z,14.00
2022-10-05T06:52:01.932Z,14.00
2022-10-05T06:55:02.161Z,14.00
2022-10-05T06:57:40.720Z,14.10
2022-10-05T07:00:29.269Z,14.10
2022-10-05T07:03:46.110Z,14.10
2022-10-05T07:06:25.232Z,14.20
2022-10-05T07:09:14.144Z,14.20
2022-10-05T07:12:30.802Z,14.20
2022-10-05T07:15:20.805Z,14.30
2022-10-05T07:18:07.913Z,14.30
2022-10-05T07:20:52.663Z,14.30
2022-10-05T07:23:44.486Z,14.30
2022-10-05T07:26:45.663Z,14.30
2022-10-05T07:29:58.879Z,14.30
2022-10-05T07:32:39.705Z,14.30
2022-10-05T07:35:45.893Z,14.40
2022-10-05T07:38:32.934Z,14.40
2022-10-05T07:41:31.155Z,14.40
2022-10-05T07:44:14.962Z,14.40
2022-10-05T07:46:53.315Z,14.40
2022-10-05T07:49:41.077Z,14.40
2022-10-05T07:52:35.836Z,14.40
2022-10-05T07:55:21.491Z,14.50
2022-10-05T07:58:29.900Z,14.50
2022-10-05T08:01:23.273Z,14.50
2022-10-05T08:04:14.626Z,14.60
2022-10-05T08:06:58.269Z,14.60
2022-10-05T08:09:31.225Z,14.70
2022-10-05T08:12:04.808Z,14.70
2022-10-05T08:15:11.734Z,14.70
2022-10-05T08:18:01.713Z,14.70
2022-10-05T08:20:53.104Z,14.80
2022-10-05T08:23:23.453Z,14.80
2022-10-05T08:26:05.157Z,14.80
2022-10-05T08:28:57.625Z,14.80
2022-10-05T08:31:41.171Z,14.90
2022-10-05T08:35:14.829Z,14.90
2022-10-05T08:37:48.973Z,14.90
2022-10-05T08:40:37.339Z,14.90
2022-10-05T08:43:18.076Z,14.90
2022-10-05T08:46:12.497Z,15.00
2022-10-05T08:49:06.459Z,15.00
2022-10-05T08:52:29.512Z,15.00
2022-10-05T08:55:29.226Z,15.10
2022-10-05T08:58:11.195Z,15.20
2022-10-05T09:01:12.611Z,15.30
2022-10-05T09:04:12.239Z,15.30
2022-10-05T09:07:05.317Z,15.40
2022-10-05T09:10:07.931Z,15.50
2022-10-05T09:13:39.343Z,15.50
2022-10-05T09:16:28.163Z,15.60
2022-10-05T09:19:24.053Z,15.60
2022-10-05T09:22:15.648Z,15.60
2022-10-05T09:24:58.049Z,15.70
2022-10-05T09:27:30.369Z,15.70
2022-10-05T09:30:44.323Z,15.80
2022-10-05T09:33:28.731Z,15.80
2022-10-05T09:36:15.126Z,15.90
2022-10-05T09:39:34.149Z,15.90
2022-10-05T09:42:24.319Z,16.00
2022-10-05T09:45:25.252Z,16.10
2022-10-05T09:48:39.334Z,16.20
2022-10-05T09:51:36.814Z,16.20
2022-10-05T09:54:43.565Z,16.30
2022-10-05T09:57:52.339Z,16.40
2022-10-05T10:01:03.634Z,16.50
2022-10-05T10:04:07.011Z,16.50
2022-10-05T10:07:04.472Z,16.70
2022-10-05T10:10:15.471Z,16.70
2022-10-05T10:12:47.918Z,16.90
2022-10-05T10:15:24.347Z,17.00
2022-10-05T10:18:46.623Z,17.10
2022-10-05T10:21:38.425Z,17.30
2022-10-05T10:24:50.939Z,17.70
2022-10-05T10:27:35.594Z,17.90
2022-10-05T10:30:27.693Z,18.10
2022-10-05T10:33:43.081Z,18.30
2022-10-05T10:36:56.656Z,18.60
2022-10-05T10:40:02.889Z,18.90
2022-10-05T10:43:00.123Z,19.30
2022-10-05T10:45:56.620Z,19.70
2022-10-05T10:48:29.391Z,20.00
2022-10-05T10:51:42.193Z,20.30
2022-10-05T10:54:24.826Z,20.50
2022-10-05T10:57:15.065Z,20.80
2022-10-05T11:00:17.395Z,21.20
2022-10-05T11:03:24.451Z,21.60
2022-10-05T11:06:17.917Z,21.80
2022-10-05T11:09:03.011Z,22.00
2022-10-05T11:11:58.409Z,22.00
2022-10-05T11:15:16.324Z,21.90
2022-10-05T11:18:15.449Z,21.70
2022-10-05T11:21:21.560Z,21.60
2022-10-05T11:24:12.793Z,21.50
2022-10-05T11:26:42.697Z,21.40
2022-10-05T11:30:06.454Z,21.40
2022-10-05T11:33:01.037Z,21.30
2022-10-05T11:35:49.173Z,21.10
2022-10-05T11:38:42.949Z,21.00
2022-10-05T11:41:46.974Z,20.90
2022-10-05T11:44:57.605Z,20.90
2022-10-05T11:47:52.055Z,20.90
2022-10-05T11:50:49.066Z,21.00
2022-10-05T11:54:00.648Z,21.10
2022-10-05T11:56:54.666Z,21.20
2022-10-05T11:59:45.750Z,21.20
2022-10-05T12:02:57.400Z,21.10
2022-10-05T12:06:17.330Z,21.20
2022-10-05T12:09:29.009Z,21.20
2022-10-05T12:12:27.103Z,21.30
2022-10-05T12:15:25.730Z,21.40
2022-10-05T12:18:39.102Z,21.50
2022-10-05T12:21:31.070Z,21.50
2022-10-05T12:24:28.170Z,21.60
2022-10-05T12:27:25.117Z,21.60
2022-10-05T12:30:15.702Z,21.70
2022-10-05T12:33:06.127Z,22.00
2022-10-05T12:35:49.222Z,22.30
2022-10-05T12:38:38.144Z,22.50
2022-10-05T12:41:24.260Z,22.80
2022-10-05T12:44:18.665Z,23.20
2022-10-05T12:47:23.723Z,23.60
2022-10-05T12:50:19.236Z,23.90
2022-10-05T12:52:50.621Z,24.30
2022-10-05T12:55:26.203Z,24.70
2022-10-05T12:58:21.967Z,25.00
2022-10-05T13:01:08.760Z,25.40
2022-10-05T13:04:03.491Z,25.70
2022-10-05T13:06:47.044Z,26.00
2022-10-05T13:09:36.666Z,26.20
2022-10-05T13:12:43.944Z,26.50
2022-10-05T13:15:47.177Z,26.50
2022-10-05T13:18:34.916Z,26.50
2022-10-05T13:21:18.713Z,26.50
2022-10-05T13:23:57.570Z,26.50
2022-10-05T13:26:48.429Z,26.50
2022-10-05T13:30:04.543Z,26.50
2022-10-05T13:32:43.367Z,26.60
2022-10-05T13:35:24.183Z,26.80
2022-10-05T13:38:09.491Z,27.00
2022-10-05T13:40:45.410Z,27.10
2022-10-05T13:43:43.845Z,27.30
2022-10-05T13:46:39.925Z,27.40
2022-10-05T13:49:29.432Z,27.60
2022-10-05T13:52:08.692Z,27.70
2022-10-05T13:55:06.861Z,27.80
2022-10-05T13:57:53.249Z,28.00
2022-10-05T14:00:27.862Z,28.10
2022-10-05T14:03:00.633Z,28.20
2022-10-05T14:05:32.899Z,28.40
2022-10-05T14:08:02.360Z,28.50
2022-10-05T14:10:45.911Z,28.50
2022-10-05T14:13:18.479Z,28.50
2022-10-05T14:16:04.781Z,28.60
2022-10-05T14:18:36.531Z,28.60
2022-10-05T14:21:15.461Z,28.50
2022-10-05T14:23:43.060Z,28.40
2022-10-05T14:26:35.405Z,28.20
2022-10-05T14:29:37.620Z,28.00
2022-10-05T14:32:15.995Z,27.70
2022-10-05T14:35:15.280Z,27.40
2022-10-05T14:37:56.300Z,27.20
2022-10-05T14:40:36.513Z,26.90
2022-10-05T14:43:35.481Z,26.60
2022-10-05T14:46:27.956Z,26.30
2022-10-05T14:49:24.084Z,26.00
2022-10-05T14:51:53.297Z,25.80
2022-10-05T14:54:55.505Z,25.60
2022-10-05T14:58:10.491Z,25.40
2022-10-05T15:00:59.689Z,25.20
2022-10-05T15:03:56.910Z,25.10
2022-10-05T15:07:28.452Z,25.00
2022-10-05T15:10:03.320Z,24.90
2022-10-05T15:12:40.504Z,24.80
2022-10-05T15:15:37.061Z,24.70
2022-10-05T15:18:39.994Z,24.60
2022-10-05T15:21:42.068Z,24.50
2022-10-05T15:24:22.015Z,24.50
2022-10-05T15:26:56.811Z,24.40
2022-10-05T15:29:38.634Z,24.30
2022-10-05T15:33:05.094Z,24.30
2022-10-05T15:36:04.189Z,24.30
2022-10-05T15:39:01.927Z,24.20
2022-10-05T15:42:00.277Z,24.20
2022-10-05T15:45:19.972Z,24.10
2022-10-05T15:48:17.399Z,24.10
2022-10-05T15:50:51.117Z,24.10
2022-10-05T15:53:33.269Z,24.10
2022-10-05T15:56:27.315Z,24.00
2022-10-05T15:59:42.121Z,24.00
2022-10-05T16:02:29.799Z,23.90
2022-10-05T16:05:44.663Z,23.90
2022-10-05T16:08:51.319Z,23.90
2022-10-05T16:12:05.535Z,23.70
2022-10-05T16:14:37.390Z,23.70
2022-10-05T16:17:28.740Z,23.60
2022-10-05T16:20:25.669Z,23.60
2022-10-05T16:23:23.011Z,23.50
2022-10-05T16:26:16.668Z,23.40
2022-10-05T16:29:06.814Z,23.30
2022-10-05T16:32:11.376Z,23.30
2022-10-05T16:34:56.259Z,23.20
2022-10-05T16:38:24.908Z,23.10
2022-10-05T16:41:07.950Z,23.10
2022-10-05T16:44:06.203Z,22.90
2022-10-05T16:46:59.147Z,22.90
2022-10-05T16:49:53.621Z,22.80
2022-10-05T16:52:27.871Z,22.70
2022-10-05T16:55:04.826Z,22.60
2022-10-05T16:57:42.985Z,22.50
2022-10-05T17:00:23.508Z,22.40
2022-10-05T17:03:05.206Z,22.40
2022-10-05T17:05:55.620Z,22.30
2022-10-05T17:08:53.479Z,22.20
2022-10-05T17:11:38.703Z,22.10
2022-10-05T17:14:28.816Z,22.00
2022-10-05T17:17:25.139Z,22.00
2022-10-05T17:20:42.997Z,21.80
2022-10-05T17:23:33.660Z,21.80
2022-10-05T17:27:07.079Z,21.70
2022-10-05T17:29:52.216Z,21.60
2022-10-05T17:32:20.977Z,21.50
2022-10-05T17:35:02.581Z,21.50
2022-10-05T17:38:05.999Z,21.40
2022-10-05T17:40:40.911Z,21.30
2022-10-05T17:43:18.881Z,21.20
2022-10-05T17:45:45.900Z,21.10
2022-10-05T17:49:07.618Z,21.10
2022-10-05T17:52:12.799Z,21.00
2022-10-05T17:55:03.827Z,21.00
2022-10-05T17:57:36.695Z,20.90
2022-10-05T18:00:33.442Z,20.80
2022-10-05T18:03:20.141Z,20.80
2022-10-05T18:06:10.009Z,20.80
2022-10-05T18:08:40.170Z,20.70
2022-10-05T18:11:17.297Z,20.60
2022-10-05T18:13:50.196Z,20.60
2022-10-05T18:16:57.588Z,20.50
2022-10-05T18:19:25.033Z,20.50
2022-10-05T18:22:15.443Z,20.40
2022-10-05T18:25:05.712Z,20.40
2022-10-05T18:27:50.974Z,20.40
2022-10-05T18:30:24.842Z,20.30
2022-10-05T18:33:27.103Z,20.30
2022-10-05T18:36:13.058Z,20.20
2022-10-05T18:38:52.890Z,20.20
2022-10-05T18:41:32.633Z,20.20
2022-10-05T18:44:18.529Z,20.20
2022-10-05T18:47:16.698Z,20.20
2022-10-05T18:50:12.981Z,20.20
2022-10-05T18:53:02.559Z,20.20
2022-10-05T18:55:35.200Z,20.20
2022-10-05T18:58:28.416Z,20.20
2022-10-05T19:01:53.914Z,20.20
2022-10-05T19:04:42.479Z,20.20
2022-10-05T19:07:32.065Z,20.20
2022-10-05T19:10:19.793Z,20.20
2022-10-05T19:13:23.401Z,20.20
2022-10-05T19:16:37.513Z,20.20
2022-10-05T19:19:29.528Z,20.20
2022-10-05T19:22:20.246Z,20.20
2022-10-05T19:25:22.987Z,20.20
2022-10-05T19:27:55.233Z,20.20
2022-10-05T19:30:33.570Z,20.20
2022-10-05T19:33:38.740Z,20.20
2022-10-05T19:36:29.531Z,20.20
2022-10-05T19:39:45.219Z,20.20
2022-10-05T19:42:37.021Z,20.30
2022-10-05T19:45:27.995Z,20.30
2022-10-05T19:48:13.760Z,20.30
2022-10-05T19:51:00.298Z,20.30
2022-10-05T19:53:37.746Z,20.30
2022-10-05T19:56:31.016Z,20.30
2022-10-05T19:59:13.954Z,20.30
2022-10-05T20:01:53.541Z,20.20
2022-10-05T20:04:47.474Z,20.20
2022-10-05T20:07:18.159Z,20.20
2022-10-05T20:10:08.607Z,20.20
2022-10-05T20:12:57.436Z,20.10
2022-10-05T20:15:53.165Z,20.10
2022-10-05T20:19:00.825Z,20.10
2022-10-05T20:21:51.904Z,20.10
2022-10-05T20:24:28.283Z,20.00
2022-10-05T20:27:05.626Z,20.00
2022-10-05T20:29:39.239Z,20.00
2022-10-05T20:32:14.220Z,20.00
2022-10-05T20:34:47.228Z,20.00
2022-10-05T20:37:20.038Z,20.00
2022-10-05T20:39:51.366Z,20.00
2022-10-05T20:42:22.916Z,20.00
2022-10-05T20:44:54.299Z,20.00
2022-10-05T20:47:26.826Z,19.90
2022-10-05T20:49:56.053Z,19.90
2022-10-05T20:52:28.603Z,19.80
2022-10-05T20:54:58.061Z,19.80
2022-10-05T20:57:29.915Z,19.80
2022-10-05T20:59:56.752Z,19.80
2022-10-05T21:02:25.977Z,19.80
2022-10-05T21:04:58.021Z,19.80
2022-10-05T21:07:27.189Z,19.70
2022-10-05T21:09:56.074Z,19.70
2022-10-05T21:12:25.302Z,19.70
2022-10-05T21:14:52.610Z,19.60
2022-10-05T21:17:21.858Z,19.60
2022-10-05T21:19:48.816Z,19.60
2022-10-05T21:22:17.828Z,19.50
2022-10-05T21:24:47.222Z,19.50
2022-10-05T21:27:20.817Z,19.50
2022-10-05T21:29:52.167Z,19.50
2022-10-05T21:32:18.897Z,19.50
2022-10-05T21:34:47.722Z,19.40
2022-10-05T21:37:15.320Z,19.40
2022-10-05T21:39:45.661Z,19.40
2022-10-05T21:42:15.015Z,19.30
2022-10-05T21:44:41.837Z,19.30
2022-10-05T21:47:14.088Z,19.30
2022-10-05T21:49:46.708Z,19.30
2022-10-05T21:52:13.537Z,19.30
2022-10-05T21:54:45.135Z,19.20
2022-10-05T21:57:12.907Z,19.20
2022-10-05T21:59:43.255Z,19.20
2022-10-05T22:02:10.075Z,19.20
2022-10-05T22:04:36.884Z,19.10
2022-10-05T22:07:22.513Z,19.10
2022-10-05T22:09:51.469Z,19.10
2022-10-05T22:12:22.252Z,19.00
2022-10-05T22:14:51.381Z,19.00
2022-10-05T22:17:31.742Z,18.90
2022-10-05T22:20:06.912Z,19.00
2022-10-05T22:22:35.921Z,19.00
2022-10-05T22:25:05.152Z,18.90
2022-10-05T22:27:38.034Z,18.90
2022-10-05T22:30:08.414Z,18.90
2022-10-05T22:32:35.152Z,18.80
2022-10-05T22:35:09.121Z,18.80
2022-10-05T22:37:38.168Z,18.80
2022-10-05T22:40:11.143Z,18.80
2022-10-05T22:42:40.443Z,18.80
2022-10-05T22:45:14.050Z,18.70
2022-10-05T22:47:42.206Z,18.70
2022-10-05T22:50:09.471Z,18.60
2022-10-05T22:52:38.830Z,18.60
2022-10-05T22:55:11.018Z,18.60
2022-10-05T22:57:41.749Z,18.50
2022-10-05T23:00:14.116Z,18.50
2022-10-05T23:02:43.905Z,18.50
2022-10-05T23:05:13.300Z,18.40
2022-10-05T23:07:46.621Z,18.40
2022-10-05T23:10:17.846Z,18.40
2022-10-05T23:13:00.379Z,18.40
2022-10-05T23:15:27.887Z,18.30
2022-10-05T23:17:56.089Z,18.30
2022-10-05T23:20:24.605Z,18.30
2022-10-05T23:22:58.552Z,18.20
2022-10-05T23:25:28.333Z,18.20
2022-10-05T23:27:57.714Z,18.10
2022-10-05T23:30:26.900Z,18.10
2022-10-05T23:32:53.666Z,18.00
2022-10-05T23:35:22.773Z,18.00
2022-10-05T23:37:49.472Z,18.00
2022-10-05T23:40:16.411Z,17.90
2022-10-05T23:42:43.162Z,17.90
2022-10-05T23:45:11.812Z,17.80
2022-10-05T23:47:42.398Z,17.80
2022-10-05T23:50:09.876Z,17.70
2022-10-05T23:52:39.761Z,17.70
2022-10-05T23:55:16.877Z,17.70
2022-10-05T23:57:45.871Z,17.70
